createdAt,value
2022-09-14T00:00:45.252Z,99418.66
2022-09-14T00:03:48.046Z,99419.66
2022-09-14T00:06:51.737Z,99417.03
2022-09-14T00:09:55.837Z,99398.00
2022-09-14T00:13:00.635Z,99405.16
2022-09-14T00:16:05.613Z,99415.56
2022-09-14T00:19:10.589Z,99411.22
2022-09-14T00:22:13.823Z,99414.97
2022-09-14T00:25:18.518Z,99419.41
2022-09-14T00:28:21.209Z,99433.72
2022-09-14T00:31:25.909Z,99442.91
2022-09-14T00:34:29.397Z,99449.72
2022-09-14T00:37:32.194Z,99446.75
2022-09-14T00:40:37.058Z,99459.28
2022-09-14T00:43:54.333Z,99457.44
2022-09-14T00:46:59.449Z,99432.81
2022-09-14T00:50:04.961Z,99404.25
2022-09-14T00:53:07.639Z,99404.03
2022-09-14T00:56:11.960Z,99406.16
2022-09-14T00:59:19.949Z,99400.03
2022-09-14T01:02:25.379Z,99383.16
2022-09-14T01:05:39.701Z,99377.94
2022-09-14T01:08:58.418Z,99377.34
2022-09-14T01:12:13.281Z,99362.72
2022-09-14T01:15:27.219Z,99358.09
2022-09-14T01:18:35.834Z,99341.63
2022-09-14T01:21:43.437Z,99339.09
2022-09-14T01:24:49.772Z,99348.06
2022-09-14T01:27:56.426Z,99359.03
2022-09-14T01:31:02.428Z,99355.81
2022-09-14T01:34:10.280Z,99362.28
2022-09-14T01:37:18.959Z,99355.06
2022-09-14T01:40:25.861Z,99350.59
2022-09-14T01:43:36.664Z,99343.13
2022-09-14T01:46:44.921Z,99349.94
2022-09-14T01:49:52.873Z,99349.06
2022-09-14T01:52:59.957Z,99356.53
2022-09-14T01:56:08.747Z,99358.88
2022-09-14T01:59:18.143Z,99364.81
2022-09-14T02:02:25.077Z,99358.97
2022-09-14T02:05:35.665Z,99356.72
2022-09-14T02:08:38.782Z,99359.56
2022-09-14T02:11:42.152Z,99348.41
2022-09-14T02:14:48.346Z,99346.56
2022-09-14T02:17:51.071Z,99341.63
2022-09-14T02:20:59.624Z,99350.19
2022-09-14T02:24:03.644Z,99342.84
2022-09-14T02:27:08.213Z,99340.13
2022-09-14T02:30:13.641Z,99341.63
2022-09-14T02:33:22.296Z,99349.94
2022-09-14T02:36:33.152Z,99349.94
2022-09-14T02:39:45.080Z,99348.81
2022-09-14T02:42:57.955Z,99341.63
2022-09-14T02:46:10.645Z,99346.34
2022-09-14T02:49:22.007Z,99339.41
2022-09-14T02:52:32.834Z,99338.38
2022-09-14T02:55:38.520Z,99330.94
2022-09-14T02:58:43.799Z,99325.97
2022-09-14T03:01:47.966Z,99322.94
2022-09-14T03:04:50.690Z,99324.44
2022-09-14T03:07:53.450Z,99325.88
2022-09-14T03:10:56.206Z,99335.38
2022-09-14T03:13:58.860Z,99335.38
2022-09-14T03:17:03.646Z,99323.28
2022-09-14T03:20:07.031Z,99307.88
2022-09-14T03:23:11.530Z,99293.75
2022-09-14T03:26:16.242Z,99277.59
2022-09-14T03:29:19.647Z,99267.94
2022-09-14T03:32:24.130Z,99271.91
2022-09-14T03:35:30.648Z,99261.16
2022-09-14T03:38:33.653Z,99268.81
2022-09-14T03:41:36.328Z,99259.34
2022-09-14T03:44:39.107Z,99261.06
2022-09-14T03:47:43.892Z,99261.19
2022-09-14T03:50:47.035Z,99265.09
2022-09-14T03:53:49.791Z,99252.66
2022-09-14T03:56:53.680Z,99240.28
2022-09-14T03:59:56.359Z,99236.19
2022-09-14T04:03:03.736Z,99228.00
2022-09-14T04:06:07.971Z,99223.94
2022-09-14T04:09:11.080Z,99221.19
2022-09-14T04:12:13.781Z,99213.13
2022-09-14T04:15:16.886Z,99214.00
2022-09-14T04:18:20.951Z,99210.28
2022-09-14T04:21:26.793Z,99209.16
2022-09-14T04:24:30.584Z,99196.59
2022-09-14T04:27:34.098Z,99192.88
2022-09-14T04:30:39.041Z,99197.09
2022-09-14T04:33:44.837Z,99204.44
2022-09-14T04:36:47.566Z,99196.81
2022-09-14T04:39:50.732Z,99196.06
2022-09-14T04:42:53.671Z,99192.63
2022-09-14T04:46:03.589Z,99195.88
2022-09-14T04:49:08.388Z,99208.28
2022-09-14T04:52:11.645Z,99213.75
2022-09-14T04:55:14.435Z,99204.25
2022-09-14T04:58:17.661Z,99195.94
2022-09-14T05:01:22.112Z,99201.41
2022-09-14T05:04:26.524Z,99194.06
2022-09-14T05:07:29.824Z,99198.56
2022-09-14T05:10:32.522Z,99194.06
2022-09-14T05:13:36.218Z,99185.56
2022-09-14T05:16:41.085Z,99188.41
2022-09-14T05:19:45.152Z,99197.59
2022-09-14T05:22:50.748Z,99198.34
2022-09-14T05:25:54.408Z,99191.47
2022-09-14T05:28:58.612Z,99191.97
2022-09-14T05:32:01.565Z,99186.50
2022-09-14T05:35:06.733Z,99191.09
2022-09-14T05:38:09.421Z,99190.22
2022-09-14T05:41:14.747Z,99199.16
2022-09-14T05:44:17.430Z,99197.31
2022-09-14T05:47:21.533Z,99188.81
2022-09-14T05:50:25.619Z,99192.53
2022-09-14T05:53:29.630Z,99191.41
2022-09-14T05:56:32.666Z,99196.75
2022-09-14T05:59:36.068Z,99206.69
2022-09-14T06:02:38.774Z,99215.16
2022-09-14T06:05:43.360Z,99188.41
2022-09-14T06:08:46.583Z,99213.28
2022-09-14T06:11:49.910Z,99200.47
2022-09-14T06:14:52.549Z,99188.28
2022-09-14T06:17:55.367Z,99190.75
2022-09-14T06:20:59.437Z,99187.75
2022-09-14T06:24:02.425Z,99184.59
2022-09-14T06:27:06.774Z,99177.72
2022-09-14T06:30:10.687Z,99188.13
2022-09-14T06:33:13.741Z,99178.53
2022-09-14T06:36:19.754Z,99172.63
2022-09-14T06:39:22.578Z,99186.03
2022-09-14T06:42:25.358Z,99182.69
2022-09-14T06:45:28.221Z,99179.84
2022-09-14T06:48:33.961Z,99166.16
2022-09-14T06:51:39.683Z,99180.44
2022-09-14T06:54:42.318Z,99181.00
2022-09-14T06:57:45.151Z,99182.50
2022-09-14T07:00:47.856Z,99185.78
2022-09-14T07:03:52.402Z,99190.03
2022-09-14T07:06:56.438Z,99191.47
2022-09-14T07:09:59.146Z,99190.81
2022-09-14T07:13:02.173Z,99199.91
2022-09-14T07:16:05.484Z,99207.44
2022-09-14T07:19:11.141Z,99215.38
2022-09-14T07:22:15.171Z,99215.09
2022-09-14T07:25:18.119Z,99217.84
2022-09-14T07:28:20.749Z,99220.22
2022-09-14T07:31:25.945Z,99224.84
2022-09-14T07:34:28.637Z,99214.06
2022-09-14T07:37:32.787Z,99199.66
2022-09-14T07:40:35.424Z,99200.72
2022-09-14T07:43:38.248Z,99211.66
2022-09-14T07:46:43.200Z,99194.31
2022-09-14T07:49:46.036Z,99199.41
2022-09-14T07:52:52.052Z,99206.31
2022-09-14T07:55:54.890Z,99210.94
2022-09-14T07:59:23.773Z,99205.88
2022-09-14T08:02:24.522Z,99199.25
2022-09-14T08:05:27.794Z,99198.66
2022-09-14T08:08:33.480Z,99197.78
2022-09-14T08:11:36.179Z,99188.00
2022-09-14T08:14:39.106Z,99181.16
2022-09-14T08:17:41.732Z,99205.66
2022-09-14T08:20:44.523Z,99198.88
2022-09-14T08:23:48.571Z,99206.41
2022-09-14T08:26:51.495Z,99186.81
2022-09-14T08:29:54.444Z,99198.22
2022-09-14T08:33:01.269Z,99197.88
2022-09-14T08:36:05.813Z,99195.41
2022-09-14T08:39:11.432Z,99205.38
2022-09-14T08:42:19.408Z,99216.94
2022-09-14T08:45:24.385Z,99200.72
2022-09-14T08:48:32.499Z,99211.94
2022-09-14T08:51:36.314Z,99189.88
2022-09-14T08:54:40.944Z,99230.69
2022-09-14T08:57:46.806Z,99234.94
2022-09-14T09:00:54.957Z,99241.78
2022-09-14T09:04:24.544Z,99245.72
2022-09-14T09:07:37.028Z,99249.84
2022-09-14T09:10:41.959Z,99253.75
2022-09-14T09:13:45.965Z,99253.06
2022-09-14T09:16:53.973Z,99258.97
2022-09-14T09:20:05.924Z,99258.41
2022-09-14T09:23:14.263Z,99277.88
2022-09-14T09:26:25.725Z,99277.16
2022-09-14T09:29:28.561Z,99265.19
2022-09-14T09:32:31.397Z,99262.28
2022-09-14T09:35:34.850Z,99268.16
2022-09-14T09:38:37.520Z,99254.56
2022-09-14T09:41:47.529Z,99249.28
2022-09-14T09:45:02.590Z,99253.91
2022-09-14T09:48:11.182Z,99256.66
2022-09-14T09:51:15.849Z,99263.03
2022-09-14T09:54:25.567Z,99257.06
2022-09-14T09:57:35.202Z,99253.31
2022-09-14T10:00:38.337Z,99244.91
2022-09-14T10:03:42.079Z,99242.41
2022-09-14T10:06:46.636Z,99225.53
2022-09-14T10:09:59.940Z,99220.63
2022-09-14T10:13:07.126Z,99200.41
2022-09-14T10:16:16.426Z,99186.44
2022-09-14T10:19:24.779Z,99188.94
2022-09-14T10:22:29.592Z,99192.94
2022-09-14T10:25:32.610Z,99178.59
2022-09-14T10:28:37.199Z,99167.13
2022-09-14T10:31:42.381Z,99164.53
2022-09-14T10:34:45.850Z,99163.59
2022-09-14T10:38:08.639Z,99160.13
2022-09-14T10:41:22.676Z,99147.13
2022-09-14T10:44:45.963Z,99149.31
2022-09-14T10:48:07.301Z,99136.75
2022-09-14T10:51:29.474Z,99126.94
2022-09-14T10:55:04.190Z,99109.53
2022-09-14T10:58:31.402Z,99101.44
2022-09-14T11:02:07.062Z,99106.44
2022-09-14T11:05:16.192Z,99106.47
2022-09-14T11:08:25.670Z,99114.09
2022-09-14T11:11:44.238Z,99113.03
2022-09-14T11:14:59.455Z,99109.94
2022-09-14T11:18:18.456Z,99102.16
2022-09-14T11:21:31.848Z,99102.28
2022-09-14T11:24:39.240Z,99073.09
2022-09-14T11:27:44.823Z,99085.69
2022-09-14T11:30:54.386Z,99083.38
2022-09-14T11:34:04.959Z,99073.25
2022-09-14T11:37:11.864Z,99064.84
2022-09-14T11:40:24.407Z,99080.75
2022-09-14T11:43:32.025Z,99069.75
2022-09-14T11:46:38.962Z,99075.78
2022-09-14T11:49:54.996Z,99073.41
2022-09-14T11:53:04.908Z,99070.47
2022-09-14T11:56:23.730Z,99067.72
2022-09-14T11:59:48.488Z,99071.34
2022-09-14T12:03:16.091Z,99077.22
2022-09-14T12:06:45.782Z,99083.44
2022-09-14T12:09:50.308Z,99080.81
2022-09-14T12:12:55.415Z,99073.94
2022-09-14T12:16:06.999Z,99078.91
2022-09-14T12:19:18.274Z,99074.63
2022-09-14T12:22:34.933Z,99067.53
2022-09-14T12:25:39.874Z,99074.94
2022-09-14T12:28:50.755Z,99077.72
2022-09-14T12:32:19.505Z,99077.41
2022-09-14T12:35:47.677Z,99090.97
2022-09-14T12:39:23.628Z,99093.72
2022-09-14T12:42:29.936Z,99096.84
2022-09-14T12:45:51.235Z,99097.16
2022-09-14T12:49:00.623Z,99095.78
2022-09-14T12:52:31.877Z,99111.94
2022-09-14T12:55:46.215Z,99108.53
2022-09-14T12:59:03.951Z,99103.34
2022-09-14T13:02:39.498Z,99074.75
2022-09-14T13:05:46.084Z,99071.59
2022-09-14T13:08:51.478Z,99079.38
2022-09-14T13:11:59.353Z,99077.59
2022-09-14T13:15:07.149Z,99079.59
2022-09-14T13:18:31.445Z,99054.59
2022-09-14T13:21:34.436Z,99066.44
2022-09-14T13:24:43.783Z,99063.97
2022-09-14T13:27:50.272Z,99059.63
2022-09-14T13:30:58.277Z,99053.59
2022-09-14T13:34:02.931Z,99047.84
2022-09-14T13:37:06.222Z,99052.09
2022-09-14T13:40:10.388Z,99040.41
2022-09-14T13:43:16.154Z,99042.44
2022-09-14T13:46:20.579Z,99048.94
2022-09-14T13:49:23.953Z,99047.94
2022-09-14T13:52:57.492Z,99035.25
2022-09-14T13:55:58.156Z,99025.03
2022-09-14T13:59:20.606Z,99022.00
2022-09-14T14:02:24.160Z,99028.75
2022-09-14T14:05:29.161Z,99007.94
2022-09-14T14:08:36.461Z,99003.06
2022-09-14T14:11:46.890Z,99006.84
2022-09-14T14:14:56.211Z,98988.78
2022-09-14T14:17:58.957Z,98982.81
2022-09-14T14:21:26.304Z,98981.38
2022-09-14T14:24:35.169Z,98987.53
2022-09-14T14:27:46.142Z,98996.38
2022-09-14T14:30:50.647Z,98988.03
2022-09-14T14:33:55.543Z,98984.53
2022-09-14T14:36:58.249Z,98994.16
2022-09-14T14:40:01.071Z,98994.09
2022-09-14T14:43:05.605Z,98999.44
2022-09-14T14:46:11.037Z,98998.56
2022-09-14T14:49:14.714Z,98983.25
2022-09-14T14:52:17.375Z,98971.09
2022-09-14T14:55:21.144Z,98980.06
2022-09-14T14:58:24.587Z,98980.28
2022-09-14T15:01:28.969Z,98961.91
2022-09-14T15:04:31.818Z,98949.50
2022-09-14T15:07:37.595Z,98956.75
2022-09-14T15:10:42.268Z,98945.28
2022-09-14T15:13:44.972Z,98945.44
2022-09-14T15:16:49.956Z,98937.19
2022-09-14T15:19:53.713Z,98939.09
2022-09-14T15:22:56.964Z,98947.31
2022-09-14T15:25:59.828Z,98939.59
2022-09-14T15:29:02.851Z,98941.34
2022-09-14T15:32:07.269Z,98936.66
2022-09-14T15:35:13.687Z,98939.84
2022-09-14T15:38:16.422Z,98938.59
2022-09-14T15:41:19.245Z,98942.47
2022-09-14T15:44:21.959Z,98960.84
2022-09-14T15:47:25.975Z,98965.31
2022-09-14T15:50:29.541Z,98959.63
2022-09-14T15:53:32.329Z,98961.84
2022-09-14T15:56:35.050Z,98965.78
2022-09-14T15:59:37.884Z,98940.53
2022-09-14T16:02:42.011Z,98953.84
2022-09-14T16:05:44.671Z,98952.47
2022-09-14T16:08:47.363Z,98939.59
2022-09-14T16:11:50.961Z,98947.28
2022-09-14T16:14:54.585Z,98942.94
2022-09-14T16:17:58.668Z,98931.44
2022-09-14T16:21:07.129Z,98935.50
2022-09-14T16:24:11.987Z,98932.38
2022-09-14T16:27:14.664Z,98940.75
2022-09-14T16:30:17.653Z,98967.84
2022-09-14T16:33:21.916Z,98991.09
2022-09-14T16:36:27.038Z,98996.84
2022-09-14T16:39:31.618Z,99006.19
2022-09-14T16:42:34.269Z,99004.13
2022-09-14T16:45:37.111Z,99000.84
2022-09-14T16:48:43.582Z,99000.00
2022-09-14T16:51:47.344Z,98981.63
2022-09-14T16:54:54.115Z,98988.72
2022-09-14T16:57:58.974Z,98994.66
2022-09-14T17:01:06.879Z,98989.16
2022-09-14T17:04:13.900Z,98973.69
2022-09-14T17:07:16.760Z,98982.72
2022-09-14T17:10:19.515Z,98984.94
2022-09-14T17:13:22.275Z,98973.53
2022-09-14T17:16:27.072Z,98981.22
2022-09-14T17:19:31.243Z,98982.88
2022-09-14T17:22:34.294Z,98970.72
2022-09-14T17:25:37.451Z,98974.66
2022-09-14T17:28:41.102Z,98969.47
2022-09-14T17:31:45.380Z,98969.94
2022-09-14T17:34:49.650Z,98975.16
2022-09-14T17:37:52.377Z,98972.59
2022-09-14T17:41:02.000Z,98970.44
2022-09-14T17:44:06.669Z,98961.53
2022-09-14T17:47:09.412Z,98988.94
2022-09-14T17:50:13.799Z,98961.53
2022-09-14T17:53:17.198Z,98958.59
2022-09-14T17:56:22.122Z,98957.59
2022-09-14T17:59:24.840Z,98962.94
2022-09-14T18:02:27.534Z,98976.34
2022-09-14T18:05:31.580Z,98975.78
2022-09-14T18:08:34.317Z,98984.47
2022-09-14T18:11:37.476Z,98981.72
2022-09-14T18:14:40.657Z,98986.09
2022-09-14T18:17:45.665Z,98983.94
2022-09-14T18:20:49.675Z,98979.94
2022-09-14T18:23:53.673Z,98983.69
2022-09-14T18:26:56.871Z,98980.97
2022-09-14T18:30:00.066Z,99006.69
2022-09-14T18:33:03.004Z,99012.16
2022-09-14T18:36:08.000Z,99016.63
2022-09-14T18:39:11.525Z,99012.56
2022-09-14T18:42:14.270Z,99014.16
2022-09-14T18:45:17.165Z,99021.19
2022-09-14T18:48:19.962Z,99016.41
2022-09-14T18:51:24.447Z,99017.56
2022-09-14T18:54:27.944Z,99012.50
2022-09-14T18:57:30.636Z,99012.50
2022-09-14T19:00:33.673Z,99017.56
2022-09-14T19:03:37.379Z,99030.97
2022-09-14T19:06:42.746Z,99036.31
2022-09-14T19:09:46.919Z,99038.78
2022-09-14T19:12:49.842Z,99039.50
2022-09-14T19:15:52.539Z,99038.09
2022-09-14T19:18:56.017Z,99043.69
2022-09-14T19:22:00.331Z,99050.59
2022-09-14T19:25:03.092Z,99058.56
2022-09-14T19:28:06.388Z,99061.63
2022-09-14T19:31:11.096Z,99066.38
2022-09-14T19:34:13.745Z,99059.47
2022-09-14T19:37:17.761Z,99051.78
2022-09-14T19:40:20.715Z,99073.41
2022-09-14T19:43:23.687Z,99072.28
2022-09-14T19:46:26.726Z,99080.09
2022-09-14T19:49:29.643Z,99090.63
2022-09-14T19:52:33.673Z,99090.19
2022-09-14T19:55:36.601Z,99082.13
2022-09-14T19:58:41.347Z,99088.06
2022-09-14T20:01:44.836Z,99080.44
2022-09-14T20:04:47.642Z,99066.75
2022-09-14T20:07:51.685Z,99063.28
2022-09-14T20:10:54.616Z,99058.22
2022-09-14T20:13:59.039Z,99042.78
2022-09-14T20:17:02.258Z,99057.06
2022-09-14T20:20:05.609Z,99062.41
2022-09-14T20:23:09.648Z,99062.69
2022-09-14T20:26:14.434Z,99065.28
2022-09-14T20:29:19.931Z,99061.69
2022-09-14T20:32:22.788Z,99063.84
2022-09-14T20:35:25.463Z,99061.53
2022-09-14T20:38:30.049Z,99065.25
2022-09-14T20:41:34.916Z,99059.97
2022-09-14T20:44:37.825Z,99076.09
2022-09-14T20:47:40.677Z,99078.69
2022-09-14T20:50:52.707Z,99075.53
2022-09-14T20:53:57.252Z,99091.69
2022-09-14T20:57:04.076Z,99105.19
2022-09-14T21:00:08.497Z,99111.72
2022-09-14T21:03:11.929Z,99111.13
2022-09-14T21:06:17.301Z,99111.84
2022-09-14T21:09:24.471Z,99112.72
2022-09-14T21:12:27.400Z,99103.50
2022-09-14T21:15:30.173Z,99102.63
2022-09-14T21:18:32.899Z,99095.09
2022-09-14T21:21:35.974Z,99083.31
2022-09-14T21:24:40.257Z,99076.97
2022-09-14T21:27:43.011Z,99093.41
2022-09-14T21:30:45.864Z,99093.41
2022-09-14T21:33:50.322Z,99103.91
2022-09-14T21:36:54.038Z,99109.53
2022-09-14T21:39:58.847Z,99115.44
2022-09-14T21:43:01.539Z,99114.84
2022-09-14T21:46:05.131Z,99113.41
2022-09-14T21:49:08.497Z,99128.09
2022-09-14T21:52:11.195Z,99118.31
2022-09-14T21:55:15.389Z,99114.84
2022-09-14T21:58:18.124Z,99097.56
2022-09-14T22:01:22.206Z,99088.75
2022-09-14T22:04:26.257Z,99091.22
2022-09-14T22:07:29.054Z,99076.69
2022-09-14T22:10:36.153Z,99078.25
2022-09-14T22:13:39.265Z,99085.16
2022-09-14T22:16:42.942Z,99099.97
2022-09-14T22:19:45.979Z,99104.03
2022-09-14T22:22:48.726Z,99104.75
2022-09-14T22:25:52.940Z,99104.75
2022-09-14T22:28:56.567Z,99100.56
2022-09-14T22:32:00.095Z,99104.59
2022-09-14T22:35:03.415Z,99095.53
2022-09-14T22:38:07.775Z,99100.88
2022-09-14T22:41:14.450Z,99106.34
2022-09-14T22:44:17.193Z,99107.75
2022-09-14T22:47:20.582Z,99106.03
2022-09-14T22:50:23.434Z,99108.34
2022-09-14T22:53:27.369Z,99111.47
2022-09-14T22:56:33.459Z,99118.66
2022-09-14T22:59:36.537Z,99116.63
2022-09-14T23:02:39.612Z,99129.88
2022-09-14T23:05:50.226Z,99123.31
2022-09-14T23:08:53.200Z,99130.66
2022-09-14T23:11:57.217Z,99124.63
2022-09-14T23:15:00.521Z,99130.25
2022-09-14T23:18:03.593Z,99136.44
2022-09-14T23:21:07.677Z,99131.47
2022-09-14T23:24:11.644Z,99136.78
2022-09-14T23:27:16.066Z,99140.84
2022-09-14T23:30:18.847Z,99135.06
2022-09-14T23:33:21.624Z,99133.38
2022-09-14T23:36:25.189Z,99135.63
2022-09-14T23:39:27.948Z,99134.78
2022-09-14T23:42:32.343Z,99139.38
2022-09-14T23:45:35.012Z,99136.50
2022-09-14T23:48:39.039Z,99137.38
2022-09-14T23:51:42.717Z,99133.63
2022-09-14T23:54:45.582Z,99128.91
2022-09-14T23:57:49.912Z,99135.06
